Time;durP1;ratioP1;P1;durP2;ratioP2;P2;SDS_P1;SDS_P2;PMS_P1;PMS_P2;Temp;Humidity;BMP_temperature;BMP_pressure;BME280_temperature;BME280_humidity;BME280_pressure;Samples;Min_cycle;Max_cycle;Signal;HPM_P1;HPM_P2
2022/11/11 00:01:49;;;;;;;;;;;12.70;99.90;;;;;;7335442;19;111246;-87
2022/11/11 00:04:16;;;;;;;;;;;12.70;99.90;;;;;;7337962;19;109639;-87
2022/11/11 00:06:43;;;;;;;;;;;12.70;99.90;;;;;;7338535;19;108485;-87
2022/11/11 00:09:10;;;;;;;;;;;12.70;99.90;;;;;;7338516;19;109667;-86
2022/11/11 00:11:37;;;;;;;;;;;12.70;99.90;;;;;;7344531;19;110205;-87
2022/11/11 00:14:04;;;;;;;;;;;12.60;99.90;;;;;;7346563;19;109379;-88
2022/11/11 00:25:04;;;;;;;;;;;12.60;99.90;;;;;;7346500;19;111774;-88
2022/11/11 00:25:06;;;;;;;;;;;12.60;99.90;;;;;;7344686;19;110330;-87
2022/11/11 00:27:33;;;;;;;;;;;12.60;99.90;;;;;;7344076;19;108494;-86
2022/11/11 00:30:00;;;;;;;;;;;12.60;99.90;;;;;;7344305;19;108389;-87
2022/11/11 00:32:29;;;;;;;;;;;12.60;99.90;;;;;;7345530;19;110146;-87
2022/11/11 00:37:44;;;;;;;;;;;12.60;99.90;;;;;;7346318;19;109111;-86
2022/11/11 00:40:11;;;;;;;;;;;12.60;99.90;;;;;;7346116;19;108630;-87
2022/11/11 00:42:39;;;;;;;;;;;12.60;99.90;;;;;;7343696;19;109341;-86
2022/11/11 00:45:06;;;;;;;;;;;12.60;99.90;;;;;;7346432;19;109760;-88
2022/11/11 00:53:10;;;;;;;;;;;12.60;99.90;;;;;;7345809;19;110312;-87
2022/11/11 00:55:37;;;;;;;;;;;12.60;99.90;;;;;;7341716;19;108602;-87
2022/11/11 00:58:04;;;;;;;;;;;12.50;99.90;;;;;;7347374;19;108718;-87
2022/11/11 01:00:32;;;;;;;;;;;12.50;99.90;;;;;;7343055;19;109114;-87
2022/11/11 01:02:59;;;;;;;;;;;12.50;99.90;;;;;;7344530;19;109709;-86
2022/11/11 01:05:26;;;;;;;;;;;12.60;99.90;;;;;;7342879;19;109721;-86
2022/11/11 01:07:54;;;;;;;;;;;12.50;99.90;;;;;;7344409;19;111214;-87
2022/11/11 01:10:37;;;;;;;;;;;12.50;99.90;;;;;;7345319;19;109068;-87
2022/11/11 01:13:11;;;;;;;;;;;12.50;99.90;;;;;;7344318;19;109629;-86
2022/11/11 01:15:42;;;;;;;;;;;12.50;99.90;;;;;;7342384;19;110832;-87
2022/11/11 01:18:10;;;;;;;;;;;12.50;99.90;;;;;;7342457;19;109745;-87
2022/11/11 01:20:38;;;;;;;;;;;12.50;99.90;;;;;;7347612;19;110172;-87
2022/11/11 01:23:09;;;;;;;;;;;12.50;99.90;;;;;;7341465;19;109063;-86
2022/11/11 01:25:36;;;;;;;;;;;12.50;99.90;;;;;;7342728;19;112014;-87
2022/11/11 01:28:04;;;;;;;;;;;12.50;99.90;;;;;;7343940;19;108188;-87
2022/11/11 01:30:31;;;;;;;;;;;12.50;99.90;;;;;;7342843;19;109227;-86
2022/11/11 01:32:59;;;;;;;;;;;12.50;99.90;;;;;;7341409;19;114871;-87
2022/11/11 01:35:26;;;;;;;;;;;12.50;99.90;;;;;;7344161;19;108888;-86
2022/11/11 01:37:53;;;;;;;;;;;12.50;99.90;;;;;;7340515;19;109167;-87
2022/11/11 01:40:20;;;;;;;;;;;12.40;99.90;;;;;;7349345;19;109986;-86
2022/11/11 01:42:48;;;;;;;;;;;12.40;99.90;;;;;;7340767;19;109723;-87
2022/11/11 01:45:34;;;;;;;;;;;12.50;99.90;;;;;;7342127;19;112856;-87
2022/11/11 01:50:52;;;;;;;;;;;12.50;99.90;;;;;;7342658;19;109392;-87
2022/11/11 01:53:19;;;;;;;;;;;12.50;99.90;;;;;;7344031;19;111058;-87
2022/11/11 01:55:46;;;;;;;;;;;12.40;99.90;;;;;;7340526;19;109157;-87
2022/11/11 01:58:14;;;;;;;;;;;12.40;99.90;;;;;;7343172;19;111066;-87
2022/11/11 02:00:41;;;;;;;;;;;12.40;99.90;;;;;;7340025;19;109694;-87
2022/11/11 02:03:09;;;;;;;;;;;12.40;99.90;;;;;;7349276;19;108396;-87
2022/11/11 02:05:44;;;;;;;;;;;12.50;99.90;;;;;;7341507;19;110055;-87
2022/11/11 02:08:13;;;;;;;;;;;12.40;99.90;;;;;;7339919;19;108380;-87
2022/11/11 02:10:43;;;;;;;;;;;12.40;99.90;;;;;;7342152;19;109482;-87
2022/11/11 02:15:57;;;;;;;;;;;12.40;99.90;;;;;;7341787;19;108600;-87
2022/11/11 02:18:25;;;;;;;;;;;12.30;99.90;;;;;;7343304;19;109378;-86
2022/11/11 02:20:53;;;;;;;;;;;12.30;99.90;;;;;;7341220;19;111290;-86
2022/11/11 02:23:26;;;;;;;;;;;12.30;99.90;;;;;;7343268;19;108645;-87
2022/11/11 02:25:55;;;;;;;;;;;12.30;99.90;;;;;;7345969;19;112720;-88
2022/11/11 02:28:24;;;;;;;;;;;12.30;99.90;;;;;;7342853;19;109457;-88
2022/11/11 02:30:51;;;;;;;;;;;12.30;99.90;;;;;;7339350;19;108984;-88
2022/11/11 02:33:18;;;;;;;;;;;12.30;99.90;;;;;;7341401;19;113082;-87
2022/11/11 02:35:57;;;;;;;;;;;12.30;99.90;;;;;;7339083;19;108681;-87
2022/11/11 02:38:24;;;;;;;;;;;12.30;99.90;;;;;;7342917;19;111938;-87
2022/11/11 02:43:37;;;;;;;;;;;12.30;99.90;;;;;;7340880;19;108622;-89
2022/11/11 02:46:05;;;;;;;;;;;12.30;99.90;;;;;;7343988;19;108439;-87
2022/11/11 02:48:32;;;;;;;;;;;12.30;99.90;;;;;;7346428;19;113167;-88
2022/11/11 02:51:01;;;;;;;;;;;12.30;99.90;;;;;;7342123;19;109147;-87
2022/11/11 02:53:28;;;;;;;;;;;12.30;99.90;;;;;;7340158;19;111720;-88
2022/11/11 02:55:55;;;;;;;;;;;12.20;99.90;;;;;;7339833;19;109476;-90
2022/11/11 02:58:23;;;;;;;;;;;12.20;99.90;;;;;;7341198;19;109344;-87
2022/11/11 03:00:49;;;;;;;;;;;12.20;99.90;;;;;;7338173;19;109160;-88
2022/11/11 03:03:16;;;;;;;;;;;12.20;99.90;;;;;;7338817;19;108390;-86
2022/11/11 03:05:44;;;;;;;;;;;12.20;99.90;;;;;;7341592;19;111642;-87
2022/11/11 03:08:11;;;;;;;;;;;12.20;99.90;;;;;;7341780;19;110233;-88
2022/11/11 03:10:38;;;;;;;;;;;12.20;99.90;;;;;;7345754;19;108389;-88
2022/11/11 03:13:05;;;;;;;;;;;12.20;99.90;;;;;;7340082;19;113689;-87
2022/11/11 03:15:32;;;;;;;;;;;12.10;99.90;;;;;;7340471;19;108334;-88
2022/11/11 03:18:00;;;;;;;;;;;12.20;99.90;;;;;;7341680;19;109407;-87
2022/11/11 03:23:14;;;;;;;;;;;12.10;99.90;;;;;;7341427;19;109004;-88
2022/11/11 03:25:42;;;;;;;;;;;12.10;99.90;;;;;;7339594;19;111822;-88
2022/11/11 03:28:10;;;;;;;;;;;12.10;99.90;;;;;;7340566;19;112834;-87
2022/11/11 03:30:42;;;;;;;;;;;12.00;99.90;;;;;;7338308;19;109178;-87
2022/11/11 03:33:09;;;;;;;;;;;12.10;99.90;;;;;;7346641;19;111495;-87
2022/11/11 03:35:36;;;;;;;;;;;12.00;99.90;;;;;;7339173;19;108501;-87
2022/11/11 03:38:23;;;;;;;;;;;12.00;99.90;;;;;;7342380;19;109141;-88
2022/11/11 03:40:52;;;;;;;;;;;12.00;99.90;;;;;;7337258;19;111875;-88
2022/11/11 03:43:20;;;;;;;;;;;12.10;99.90;;;;;;7342372;19;111184;-88
2022/11/11 03:45:47;;;;;;;;;;;12.10;99.90;;;;;;7338600;19;109435;-88
2022/11/11 03:48:15;;;;;;;;;;;12.00;99.90;;;;;;7338112;19;110326;-87
2022/11/11 03:50:42;;;;;;;;;;;12.00;99.90;;;;;;7339720;19;108820;-87
2022/11/11 03:53:09;;;;;;;;;;;12.00;99.90;;;;;;7344937;19;109691;-88
2022/11/11 03:55:36;;;;;;;;;;;12.10;99.90;;;;;;7338199;19;109735;-88
2022/11/11 03:58:03;;;;;;;;;;;12.10;99.90;;;;;;7338662;19;109696;-87
2022/11/11 04:00:30;;;;;;;;;;;12.10;99.90;;;;;;7340532;19;110241;-87
2022/11/11 04:11:33;;;;;;;;;;;12.00;99.90;;;;;;7340953;19;108914;-87
2022/11/11 04:16:53;;;;;;;;;;;12.00;99.90;;;;;;7344953;19;110592;-88
2022/11/11 04:22:05;;;;;;;;;;;11.90;99.90;;;;;;7339709;19;109950;-87
2022/11/11 04:27:18;;;;;;;;;;;11.90;99.90;;;;;;7339486;19;109300;-88
2022/11/11 04:29:49;;;;;;;;;;;11.90;99.90;;;;;;7340396;19;109366;-91
2022/11/11 04:32:37;;;;;;;;;;;11.90;99.90;;;;;;7338921;19;109084;-88
2022/11/11 04:35:08;;;;;;;;;;;11.90;99.90;;;;;;7339266;19;109122;-88
2022/11/11 04:37:43;;;;;;;;;;;11.90;99.90;;;;;;7337186;19;109950;-87
2022/11/11 04:42:55;;;;;;;;;;;11.80;99.90;;;;;;7337440;19;109445;-87
2022/11/11 04:45:29;;;;;;;;;;;11.80;99.90;;;;;;7339962;19;108444;-88
2022/11/11 04:48:00;;;;;;;;;;;11.80;99.90;;;;;;7337761;19;108680;-87
2022/11/11 04:50:29;;;;;;;;;;;11.80;99.90;;;;;;7337435;19;110232;-87
2022/11/11 04:52:56;;;;;;;;;;;11.80;99.90;;;;;;7338249;19;108643;-86
2022/11/11 04:58:09;;;;;;;;;;;11.80;99.90;;;;;;7340542;19;110906;-88
2022/11/11 05:00:36;;;;;;;;;;;11.70;99.90;;;;;;7343170;19;108632;-88
2022/11/11 05:03:15;;;;;;;;;;;11.70;99.90;;;;;;7348531;19;109182;-88
2022/11/11 05:11:13;;;;;;;;;;;11.70;99.90;;;;;;7359229;19;110424;-87
2022/11/11 05:22:19;;;;;;;;;;;11.60;99.90;;;;;;7382344;19;108135;-87
2022/11/11 05:27:31;;;;;;;;;;;11.60;99.90;;;;;;7387197;19;109454;-87
2022/11/11 05:29:58;;;;;;;;;;;11.60;99.90;;;;;;7380478;19;108014;-88
2022/11/11 05:32:25;;;;;;;;;;;11.60;99.90;;;;;;7381623;19;108040;-88
2022/11/11 05:34:52;;;;;;;;;;;11.60;99.90;;;;;;7379523;19;108540;-88
2022/11/11 05:37:19;;;;;;;;;;;11.50;99.90;;;;;;7369358;19;108015;-86
2022/11/11 05:39:47;;;;;;;;;;;11.50;99.90;;;;;;7346049;19;110541;-82
2022/11/11 05:42:14;;;;;;;;;;;11.50;99.90;;;;;;7344659;19;108231;-82
2022/11/11 05:44:41;;;;;;;;;;;11.50;99.90;;;;;;7341490;19;109183;-82
2022/11/11 05:47:07;;;;;;;;;;;11.50;99.90;;;;;;7344010;19;110486;-82
2022/11/11 05:49:34;;;;;;;;;;;11.40;99.90;;;;;;7349380;19;108907;-83
2022/11/11 05:52:02;;;;;;;;;;;11.40;99.90;;;;;;7344885;19;109921;-83
2022/11/11 05:54:29;;;;;;;;;;;11.30;99.90;;;;;;7344406;19;108693;-83
2022/11/11 05:56:56;;;;;;;;;;;11.30;99.90;;;;;;7337809;19;110072;-84
2022/11/11 05:59:23;;;;;;;;;;;11.20;99.90;;;;;;7334588;19;111526;-83
2022/11/11 06:01:50;;;;;;;;;;;11.20;99.90;;;;;;7337796;19;109238;-83
2022/11/11 06:04:17;;;;;;;;;;;11.20;99.90;;;;;;7336195;19;109361;-83
2022/11/11 06:06:44;;;;;;;;;;;11.10;99.90;;;;;;7334510;19;112308;-83
2022/11/11 06:09:11;;;;;;;;;;;11.10;99.90;;;;;;7343606;19;109162;-83
2022/11/11 06:11:38;;;;;;;;;;;11.00;99.90;;;;;;7336977;19;110394;-83
2022/11/11 06:14:05;;;;;;;;;;;11.00;99.90;;;;;;7340193;19;108496;-83
2022/11/11 06:16:32;;;;;;;;;;;10.90;99.90;;;;;;7338536;19;110135;-83
2022/11/11 06:18:59;;;;;;;;;;;10.90;99.90;;;;;;7338657;19;109328;-82
2022/11/11 06:21:26;;;;;;;;;;;10.80;99.90;;;;;;7337979;19;109004;-82
2022/11/11 06:23:53;;;;;;;;;;;10.80;99.90;;;;;;7336130;19;112581;-83
2022/11/11 06:26:20;;;;;;;;;;;10.70;99.90;;;;;;7337024;19;113479;-83
2022/11/11 06:28:48;;;;;;;;;;;10.70;99.90;;;;;;7338659;19;109475;-83
2022/11/11 06:31:17;;;;;;;;;;;10.70;99.90;;;;;;7342297;19;109732;-83
2022/11/11 06:33:44;;;;;;;;;;;10.60;99.90;;;;;;7339176;19;108654;-83
2022/11/11 06:36:12;;;;;;;;;;;10.60;99.90;;;;;;7337869;19;110516;-83
2022/11/11 06:38:40;;;;;;;;;;;10.60;99.90;;;;;;7335064;19;113863;-83
2022/11/11 06:41:07;;;;;;;;;;;10.60;99.90;;;;;;7338927;19;108993;-83
2022/11/11 06:43:34;;;;;;;;;;;10.50;99.90;;;;;;7338121;19;112645;-82
2022/11/11 06:46:01;;;;;;;;;;;10.50;99.90;;;;;;7335444;19;110200;-83
2022/11/11 06:48:28;;;;;;;;;;;10.50;99.90;;;;;;7337865;19;108896;-83
2022/11/11 06:51:00;;;;;;;;;;;10.40;99.90;;;;;;7335236;19;109219;-82
2022/11/11 06:53:28;;;;;;;;;;;10.40;99.90;;;;;;7339573;19;111017;-83
2022/11/11 06:55:55;;;;;;;;;;;10.40;99.90;;;;;;7332576;19;109800;-83
2022/11/11 06:58:22;;;;;;;;;;;10.40;99.90;;;;;;7334311;19;110714;-82
2022/11/11 07:00:50;;;;;;;;;;;10.30;99.90;;;;;;7333686;19;110421;-83
2022/11/11 07:03:18;;;;;;;;;;;10.30;99.90;;;;;;7336166;19;109463;-83
2022/11/11 07:05:51;;;;;;;;;;;10.30;99.90;;;;;;7335237;19;110094;-83
2022/11/11 07:08:24;;;;;;;;;;;10.30;99.90;;;;;;7336716;19;108528;-83
2022/11/11 07:10:53;;;;;;;;;;;10.20;99.90;;;;;;7337362;19;109640;-83
2022/11/11 07:13:20;;;;;;;;;;;10.20;99.90;;;;;;7331640;19;110607;-83
2022/11/11 07:15:47;;;;;;;;;;;10.20;99.90;;;;;;7335524;19;109556;-83
2022/11/11 07:18:14;;;;;;;;;;;10.30;99.90;;;;;;7334294;19;110246;-83
2022/11/11 07:20:41;;;;;;;;;;;10.20;99.90;;;;;;7333276;19;108604;-83
2022/11/11 07:23:08;;;;;;;;;;;10.20;99.90;;;;;;7333854;19;109755;-83
2022/11/11 07:25:35;;;;;;;;;;;10.20;99.90;;;;;;7336197;19;109258;-83
2022/11/11 07:28:02;;;;;;;;;;;10.20;99.90;;;;;;7336029;19;109043;-83
2022/11/11 07:30:29;;;;;;;;;;;10.20;99.90;;;;;;7333683;19;109343;-82
2022/11/11 07:32:56;;;;;;;;;;;10.20;99.90;;;;;;7333026;19;110663;-83
2022/11/11 07:35:22;;;;;;;;;;;10.10;99.90;;;;;;7335537;19;108280;-83
2022/11/11 07:37:50;;;;;;;;;;;10.10;99.90;;;;;;7338263;19;109923;-83
2022/11/11 07:40:18;;;;;;;;;;;10.10;99.90;;;;;;7339310;19;109803;-83
2022/11/11 07:42:45;;;;;;;;;;;10.10;99.90;;;;;;7333904;19;109866;-83
2022/11/11 07:45:13;;;;;;;;;;;10.10;99.90;;;;;;7333602;19;109779;-83
2022/11/11 07:47:41;;;;;;;;;;;10.10;99.90;;;;;;7332980;19;108884;-83
2022/11/11 07:50:09;;;;;;;;;;;10.10;99.90;;;;;;7335489;19;112456;-83
2022/11/11 07:52:36;;;;;;;;;;;10.10;99.90;;;;;;7330752;19;114021;-82
2022/11/11 07:55:03;;;;;;;;;;;10.10;99.90;;;;;;7334504;19;109005;-82
2022/11/11 07:57:30;;;;;;;;;;;10.00;99.90;;;;;;7335897;19;111403;-82
2022/11/11 07:59:57;;;;;;;;;;;10.10;99.90;;;;;;7333124;19;108557;-82
2022/11/11 08:02:24;;;;;;;;;;;10.10;99.90;;;;;;7335381;19;110675;-83
2022/11/11 08:04:51;;;;;;;;;;;10.10;99.90;;;;;;7335432;19;110425;-83
2022/11/11 08:07:22;;;;;;;;;;;10.10;99.90;;;;;;7332680;19;108583;-83
2022/11/11 08:09:50;;;;;;;;;;;10.10;99.90;;;;;;7332764;19;109348;-82
2022/11/11 08:15:04;;;;;;;;;;;10.10;99.90;;;;;;7337156;19;108182;-83
2022/11/11 08:17:39;;;;;;;;;;;10.10;99.90;;;;;;7331953;19;109673;-83
2022/11/11 08:20:07;;;;;;;;;;;10.10;99.90;;;;;;7333843;19;110259;-82
2022/11/11 08:22:37;;;;;;;;;;;10.20;99.90;;;;;;7333608;19;109223;-81
2022/11/11 08:25:09;;;;;;;;;;;10.20;99.90;;;;;;7336112;19;111008;-82
2022/11/11 08:27:36;;;;;;;;;;;10.20;99.90;;;;;;7334598;19;108819;-82
2022/11/11 08:30:04;;;;;;;;;;;10.20;99.90;;;;;;7333478;19;112256;-82
2022/11/11 08:32:31;;;;;;;;;;;10.30;99.90;;;;;;7337609;19;110491;-82
2022/11/11 08:34:58;;;;;;;;;;;10.40;99.90;;;;;;7336990;19;110755;-83
2022/11/11 08:37:25;;;;;;;;;;;10.40;99.90;;;;;;7338861;19;109500;-83
2022/11/11 08:39:52;;;;;;;;;;;10.40;99.90;;;;;;7336711;19;109520;-82
2022/11/11 08:42:19;;;;;;;;;;;10.40;99.90;;;;;;7347058;19;108482;-82
2022/11/11 08:44:46;;;;;;;;;;;10.50;99.90;;;;;;7340168;19;110266;-83
2022/11/11 08:47:13;;;;;;;;;;;10.50;99.90;;;;;;7342855;19;109900;-83
2022/11/11 08:49:39;;;;;;;;;;;10.50;99.90;;;;;;7339287;19;109710;-83
2022/11/11 08:52:06;;;;;;;;;;;10.50;99.90;;;;;;7342362;19;109250;-83
2022/11/11 08:54:33;;;;;;;;;;;10.60;99.90;;;;;;7347129;19;108570;-83
2022/11/11 08:57:00;;;;;;;;;;;10.60;99.90;;;;;;7343634;19;111917;-83
2022/11/11 08:59:27;;;;;;;;;;;10.60;99.90;;;;;;7342754;19;111681;-83
2022/11/11 09:01:54;;;;;;;;;;;10.70;99.90;;;;;;7340011;19;113009;-83
2022/11/11 09:04:21;;;;;;;;;;;10.70;99.90;;;;;;7349488;19;109979;-83
2022/11/11 09:07:09;;;;;;;;;;;10.80;99.90;;;;;;7343263;19;109820;-84
2022/11/11 09:09:36;;;;;;;;;;;10.90;99.90;;;;;;7343397;19;108898;-83
2022/11/11 09:12:03;;;;;;;;;;;10.90;99.90;;;;;;7345124;19;114015;-83
2022/11/11 09:14:30;;;;;;;;;;;11.00;99.90;;;;;;7342521;19;109616;-83
2022/11/11 09:16:57;;;;;;;;;;;11.00;99.90;;;;;;7341904;19;108777;-83
2022/11/11 09:19:24;;;;;;;;;;;11.10;99.90;;;;;;7343038;19;109567;-83
2022/11/11 09:21:54;;;;;;;;;;;11.20;99.90;;;;;;7341206;19;109429;-83
2022/11/11 09:24:21;;;;;;;;;;;11.20;99.90;;;;;;7343557;19;112991;-83
2022/11/11 09:26:48;;;;;;;;;;;11.30;99.90;;;;;;7350027;19;110133;-83
2022/11/11 09:29:15;;;;;;;;;;;11.30;99.90;;;;;;7341366;19;108319;-83
2022/11/11 09:31:42;;;;;;;;;;;11.40;99.90;;;;;;7339237;19;109746;-83
2022/11/11 09:34:12;;;;;;;;;;;11.50;99.90;;;;;;7343131;19;109154;-83
2022/11/11 09:36:39;;;;;;;;;;;11.50;99.90;;;;;;7342497;19;109080;-83
2022/11/11 09:39:06;;;;;;;;;;;11.60;99.90;;;;;;7339915;19;109290;-84
2022/11/11 09:41:33;;;;;;;;;;;11.70;99.90;;;;;;7341576;19;108701;-83
2022/11/11 09:44:00;;;;;;;;;;;11.80;99.90;;;;;;7341633;19;111865;-84
2022/11/11 09:46:36;;;;;;;;;;;11.90;99.90;;;;;;7342775;19;110556;-83
2022/11/11 09:49:18;;;;;;;;;;;11.90;99.90;;;;;;7349191;19;108556;-84
2022/11/11 09:51:58;;;;;;;;;;;12.00;99.90;;;;;;7340673;19;110725;-84
2022/11/11 09:54:34;;;;;;;;;;;12.10;99.90;;;;;;7340882;19;109494;-83
2022/11/11 09:57:04;;;;;;;;;;;12.20;99.90;;;;;;7340543;19;109737;-82
2022/11/11 09:59:36;;;;;;;;;;;12.20;99.90;;;;;;7342634;19;110831;-84
2022/11/11 10:02:09;;;;;;;;;;;12.20;99.90;;;;;;7342106;19;109318;-86
2022/11/11 10:04:45;;;;;;;;;;;12.30;99.90;;;;;;7340223;19;109976;-86
2022/11/11 10:07:13;;;;;;;;;;;12.40;99.90;;;;;;7339276;19;110178;-85
2022/11/11 10:09:45;;;;;;;;;;;12.40;99.90;;;;;;7345164;19;109279;-84
2022/11/11 10:12:14;;;;;;;;;;;12.50;99.90;;;;;;7341055;19;110513;-86
2022/11/11 10:14:45;;;;;;;;;;;12.50;99.90;;;;;;7340120;19;108474;-85
2022/11/11 10:17:21;;;;;;;;;;;12.60;99.90;;;;;;7339729;19;109243;-85
2022/11/11 10:20:03;;;;;;;;;;;12.60;99.90;;;;;;7338511;19;111946;-85
2022/11/11 10:22:32;;;;;;;;;;;12.70;99.90;;;;;;7339396;19;108463;-85
2022/11/11 10:25:11;;;;;;;;;;;12.80;99.90;;;;;;7340947;19;112348;-84
2022/11/11 10:27:42;;;;;;;;;;;12.80;99.90;;;;;;7340136;19;109784;-83
2022/11/11 10:30:17;;;;;;;;;;;12.90;99.90;;;;;;7339277;19;111776;-83
2022/11/11 10:32:46;;;;;;;;;;;13.00;99.90;;;;;;7345366;19;109355;-83
2022/11/11 10:35:17;;;;;;;;;;;13.00;99.90;;;;;;7340272;19;108911;-83
2022/11/11 10:37:45;;;;;;;;;;;13.10;99.90;;;;;;7340193;19;109384;-83
2022/11/11 10:40:14;;;;;;;;;;;13.20;99.90;;;;;;7340678;19;109981;-84
2022/11/11 10:42:41;;;;;;;;;;;13.30;99.90;;;;;;7338843;19;108967;-83
2022/11/11 10:45:13;;;;;;;;;;;13.30;99.90;;;;;;7340034;19;109505;-84
2022/11/11 10:47:40;;;;;;;;;;;13.40;99.90;;;;;;7341856;19;110286;-83
2022/11/11 10:50:14;;;;;;;;;;;13.50;99.90;;;;;;7339969;19;109001;-83
2022/11/11 10:52:53;;;;;;;;;;;13.50;99.90;;;;;;7338615;19;111627;-84
2022/11/11 10:55:22;;;;;;;;;;;13.60;99.90;;;;;;7343276;19;109950;-85
2022/11/11 10:58:19;;;;;;;;;;;13.70;99.90;;;;;;7338294;19;110044;-84
2022/11/11 11:00:47;;;;;;;;;;;13.80;99.90;;;;;;7338775;19;111367;-84
2022/11/11 11:03:23;;;;;;;;;;;13.90;99.90;;;;;;7341140;19;109473;-84
2022/11/11 11:05:56;;;;;;;;;;;14.00;99.90;;;;;;7337695;19;109503;-83
2022/11/11 11:08:26;;;;;;;;;;;14.20;99.90;;;;;;7341346;19;110782;-83
2022/11/11 11:10:59;;;;;;;;;;;14.20;99.90;;;;;;7337557;19;108934;-83
2022/11/11 11:13:28;;;;;;;;;;;14.30;99.90;;;;;;7338430;19;110509;-84
2022/11/11 11:15:57;;;;;;;;;;;14.40;99.90;;;;;;7338339;19;109486;-83
2022/11/11 11:18:25;;;;;;;;;;;14.50;99.90;;;;;;7344904;19;108412;-83
2022/11/11 11:20:57;;;;;;;;;;;14.60;99.90;;;;;;7336142;19;110634;-83
2022/11/11 11:23:37;;;;;;;;;;;14.70;99.90;;;;;;7341156;19;109737;-83
2022/11/11 11:26:04;;;;;;;;;;;14.80;99.90;;;;;;7337587;19;109539;-84
2022/11/11 11:28:33;;;;;;;;;;;14.90;99.90;;;;;;7338072;19;110636;-82
2022/11/11 11:31:00;;;;;;;;;;;15.00;99.90;;;;;;7337934;19;108480;-82
2022/11/11 11:33:26;;;;;;;;;;;15.00;99.90;;;;;;7341744;19;108846;-82
2022/11/11 11:35:53;;;;;;;;;;;15.00;99.90;;;;;;7341259;19;110167;-82
2022/11/11 11:38:38;;;;;;;;;;;15.10;99.90;;;;;;7337397;19;109070;-82
2022/11/11 11:41:05;;;;;;;;;;;15.20;99.90;;;;;;7345425;19;109470;-82
2022/11/11 11:43:36;;;;;;;;;;;15.20;99.90;;;;;;7340944;19;109251;-82
2022/11/11 11:46:19;;;;;;;;;;;15.30;99.90;;;;;;7339172;19;109385;-82
2022/11/11 11:49:12;;;;;;;;;;;15.30;99.90;;;;;;7337187;19;110081;-83
2022/11/11 11:51:55;;;;;;;;;;;15.40;99.90;;;;;;7337577;19;108862;-82
2022/11/11 11:54:53;;;;;;;;;;;15.50;99.90;;;;;;7338331;19;108732;-82
2022/11/11 11:57:34;;;;;;;;;;;15.50;99.90;;;;;;7336790;19;110473;-84
2022/11/11 12:00:01;;;;;;;;;;;15.60;99.90;;;;;;7340140;19;108539;-84
2022/11/11 12:02:28;;;;;;;;;;;15.70;99.90;;;;;;7337371;19;109877;-85
2022/11/11 12:05:08;;;;;;;;;;;15.70;99.90;;;;;;7343099;19;110316;-85
2022/11/11 12:08:01;;;;;;;;;;;15.80;99.90;;;;;;7348040;19;112734;-85
2022/11/11 12:10:48;;;;;;;;;;;15.90;99.90;;;;;;7351880;19;110267;-85
2022/11/11 12:13:23;;;;;;;;;;;16.00;99.90;;;;;;7354335;19;108349;-85
2022/11/11 12:16:09;;;;;;;;;;;16.00;99.90;;;;;;7352707;19;109321;-85
2022/11/11 12:18:38;;;;;;;;;;;16.10;99.90;;;;;;7350971;19;110105;-86
2022/11/11 12:21:13;;;;;;;;;;;16.10;99.90;;;;;;7352815;19;108442;-85
2022/11/11 12:23:50;;;;;;;;;;;16.20;99.90;;;;;;7351531;19;109233;-86
2022/11/11 12:26:23;;;;;;;;;;;16.20;99.90;;;;;;7356559;19;111582;-86
2022/11/11 12:28:49;;;;;;;;;;;16.20;99.90;;;;;;7350881;19;108987;-86
2022/11/11 12:31:34;;;;;;;;;;;16.20;99.90;;;;;;7349714;19;110702;-86
2022/11/11 12:34:20;;;;;;;;;;;16.20;99.90;;;;;;7351723;19;108875;-85
2022/11/11 12:37:10;;;;;;;;;;;16.30;99.90;;;;;;7350217;19;112500;-86
2022/11/11 12:39:37;;;;;;;;;;;16.30;99.90;;;;;;7348743;19;110130;-86
2022/11/11 12:42:17;;;;;;;;;;;16.30;99.90;;;;;;7355052;19;108285;-86
2022/11/11 12:44:47;;;;;;;;;;;16.30;99.90;;;;;;7351838;19;109031;-86
2022/11/11 12:47:25;;;;;;;;;;;16.40;99.90;;;;;;7352893;19;110143;-85
2022/11/11 12:49:57;;;;;;;;;;;16.40;99.90;;;;;;7355967;19;109463;-87
2022/11/11 12:52:40;;;;;;;;;;;16.50;99.90;;;;;;7351538;19;109867;-87
2022/11/11 12:55:25;;;;;;;;;;;16.50;99.90;;;;;;7353370;19;108704;-87
2022/11/11 12:57:52;;;;;;;;;;;16.60;99.90;;;;;;7351597;19;108807;-86
2022/11/11 13:00:20;;;;;;;;;;;16.60;99.90;;;;;;7353039;19;109323;-87
2022/11/11 13:02:47;;;;;;;;;;;16.60;99.90;;;;;;7349937;19;108508;-86
2022/11/11 13:05:32;;;;;;;;;;;16.70;99.90;;;;;;7352744;19;112125;-86
2022/11/11 13:08:17;;;;;;;;;;;16.70;99.90;;;;;;7352336;19;110822;-86
2022/11/11 13:10:56;;;;;;;;;;;16.70;99.90;;;;;;7349255;19;108766;-89
2022/11/11 13:13:24;;;;;;;;;;;16.80;99.90;;;;;;7356511;19;109097;-87
2022/11/11 13:15:52;;;;;;;;;;;16.80;99.90;;;;;;7348913;19;108892;-85
2022/11/11 13:18:25;;;;;;;;;;;16.80;99.90;;;;;;7345752;19;111181;-85
2022/11/11 13:20:55;;;;;;;;;;;16.80;99.90;;;;;;7342973;19;110328;-85
2022/11/11 13:23:22;;;;;;;;;;;16.90;99.90;;;;;;7345231;19;109056;-85
2022/11/11 13:25:54;;;;;;;;;;;16.90;99.90;;;;;;7342984;19;109745;-85
2022/11/11 13:28:42;;;;;;;;;;;17.00;99.90;;;;;;7345147;19;113333;-85
2022/11/11 13:31:24;;;;;;;;;;;17.00;99.90;;;;;;7343378;19;108880;-86
2022/11/11 13:33:54;;;;;;;;;;;17.10;99.90;;;;;;7342225;19;109782;-85
2022/11/11 13:36:23;;;;;;;;;;;17.00;99.90;;;;;;7347572;19;110396;-85
2022/11/11 13:38:52;;;;;;;;;;;17.10;99.90;;;;;;7344428;19;112520;-85
2022/11/11 13:41:40;;;;;;;;;;;17.20;99.90;;;;;;7342854;19;110261;-86
2022/11/11 13:44:08;;;;;;;;;;;17.20;99.90;;;;;;7342555;19;109276;-85
2022/11/11 13:46:38;;;;;;;;;;;17.20;99.90;;;;;;7343023;19;109393;-85
2022/11/11 13:49:21;;;;;;;;;;;17.20;99.90;;;;;;7345011;19;109945;-85
2022/11/11 13:51:56;;;;;;;;;;;17.20;99.90;;;;;;7343170;19;108912;-85
2022/11/11 13:54:28;;;;;;;;;;;17.20;99.90;;;;;;7344905;19;108983;-85
2022/11/11 13:57:21;;;;;;;;;;;17.20;99.90;;;;;;7342302;19;110435;-85
2022/11/11 13:59:54;;;;;;;;;;;17.20;99.90;;;;;;7344827;19;108412;-84
2022/11/11 14:02:21;;;;;;;;;;;17.30;99.90;;;;;;7344839;19;110573;-85
2022/11/11 14:05:00;;;;;;;;;;;17.20;99.90;;;;;;7341257;19;108521;-85
2022/11/11 14:07:46;;;;;;;;;;;17.20;99.90;;;;;;7342827;19;112835;-83
2022/11/11 14:10:15;;;;;;;;;;;17.30;99.90;;;;;;7344784;19;110791;-84
2022/11/11 14:12:44;;;;;;;;;;;17.30;99.90;;;;;;7343419;19;108835;-85
2022/11/11 14:15:29;;;;;;;;;;;17.30;99.90;;;;;;7342172;19;112362;-84
2022/11/11 14:17:56;;;;;;;;;;;17.30;99.90;;;;;;7341307;19;110695;-84
2022/11/11 14:20:39;;;;;;;;;;;17.30;99.90;;;;;;7342818;19;108583;-84
2022/11/11 14:23:25;;;;;;;;;;;17.20;99.90;;;;;;7346009;19;112630;-84
2022/11/11 14:26:05;;;;;;;;;;;17.20;99.90;;;;;;7340248;19;108623;-85
2022/11/11 14:28:33;;;;;;;;;;;17.20;99.90;;;;;;7342141;19;109465;-84
2022/11/11 14:31:27;;;;;;;;;;;17.00;99.90;;;;;;7341420;19;113175;-84
2022/11/11 14:33:56;;;;;;;;;;;16.90;99.90;;;;;;7343006;19;108538;-84
2022/11/11 14:36:42;;;;;;;;;;;16.90;99.90;;;;;;7339994;19;109450;-84
2022/11/11 14:39:09;;;;;;;;;;;16.80;99.90;;;;;;7340729;19;110292;-84
2022/11/11 14:41:39;;;;;;;;;;;16.80;99.90;;;;;;7341216;19;109036;-84
2022/11/11 14:44:32;;;;;;;;;;;16.80;99.90;;;;;;7345309;19;109459;-84
2022/11/11 14:47:02;;;;;;;;;;;16.70;99.90;;;;;;7340699;19;108543;-84
2022/11/11 14:49:54;;;;;;;;;;;16.70;99.90;;;;;;7342613;19;110784;-84
2022/11/11 14:52:24;;;;;;;;;;;16.50;99.90;;;;;;7341332;19;111159;-88
2022/11/11 14:55:00;;;;;;;;;;;16.50;99.90;;;;;;7343157;19;108296;-88
2022/11/11 14:57:33;;;;;;;;;;;16.40;99.90;;;;;;7343559;19;108587;-88
2022/11/11 15:00:02;;;;;;;;;;;16.40;99.90;;;;;;7342884;19;109988;-89
2022/11/11 15:02:33;;;;;;;;;;;16.30;99.90;;;;;;7340734;19;108612;-89
2022/11/11 15:05:02;;;;;;;;;;;16.20;99.90;;;;;;7340923;19;109390;-85
2022/11/11 15:07:33;;;;;;;;;;;16.10;99.90;;;;;;7344246;19;112236;-84
2022/11/11 15:10:07;;;;;;;;;;;16.00;99.90;;;;;;7341955;19;108885;-85
2022/11/11 15:12:44;;;;;;;;;;;15.90;99.90;;;;;;7339121;19;110041;-85
2022/11/11 15:15:11;;;;;;;;;;;15.70;99.90;;;;;;7347665;19;110224;-96
2022/11/11 15:17:51;;;;;;;;;;;15.60;99.90;;;;;;7340721;19;109415;-68
2022/11/11 15:20:25;;;;;;;;;;;15.50;99.90;;;;;;7334419;19;110244;-68
2022/11/11 15:23:04;;;;;;;;;;;15.40;99.90;;;;;;7334601;19;109227;-68
2022/11/11 15:25:49;;;;;;;;;;;15.30;99.90;;;;;;7335521;19;109619;-68
2022/11/11 15:28:16;;;;;;;;;;;15.20;99.90;;;;;;7334399;19;110543;-68
2022/11/11 15:30:57;;;;;;;;;;;15.10;99.90;;;;;;7339525;19;108933;-69
2022/11/11 15:33:27;;;;;;;;;;;15.10;99.90;;;;;;7335847;19;113684;-68